Time;durP1;ratioP1;P1;durP2;ratioP2;P2;SDS_P1;SDS_P2;PMS_P1;PMS_P2;Temp;Humidity;BMP_temperature;BMP_pressure;BME280_temperature;BME280_humidity;BME280_pressure;Samples;Min_cycle;Max_cycle;Signal;HPM_P1;HPM_P2
2022/07/15 00:01:23;;;;;;;;;;;13.70;99.90;;;;;;4946891;28;20058;-83
2022/07/15 00:03:49;;;;;;;0.30;0.30;;;13.70;99.90;;;;;;4961637;28;19925;-83
2022/07/15 00:06:15;;;;;;;0.68;0.68;;;13.70;99.90;;;;;;4956723;28;20108;-81
2022/07/15 00:08:41;;;;;;;0.30;0.30;;;13.80;99.90;;;;;;4949792;28;20453;-83
2022/07/15 00:11:06;;;;;;;0.45;0.45;;;13.80;99.90;;;;;;4951682;28;20090;-84
2022/07/15 00:13:32;;;;;;;0.20;0.20;;;13.90;99.90;;;;;;4966094;28;20476;-83
2022/07/15 00:15:58;;;;;;;0.30;0.30;;;13.90;99.90;;;;;;4950456;28;20065;-84
2022/07/15 00:18:23;;;;;;;0.30;0.30;;;13.90;99.90;;;;;;4936695;28;20096;-83
2022/07/15 00:20:49;;;;;;;11.38;2.60;;;14.00;99.90;;;;;;4942336;28;20121;-84
2022/07/15 00:23:15;;;;;;;0.20;0.20;;;13.90;99.90;;;;;;4967743;28;20039;-83
2022/07/15 00:25:40;;;;;;;0.30;0.30;;;13.90;99.90;;;;;;4959770;28;20533;-84
2022/07/15 00:28:07;;;;;;;0.20;0.20;;;13.80;99.90;;;;;;5036429;28;20058;-83
2022/07/15 00:30:37;;;;;;;0.30;0.30;;;13.80;99.90;;;;;;4977553;28;20050;-83
2022/07/15 00:33:10;;;;;;;0.38;0.38;;;13.80;99.90;;;;;;4950678;28;20104;-83
2022/07/15 00:35:39;;;;;;;0.30;0.30;;;13.80;99.90;;;;;;4960221;28;20399;-83
2022/07/15 00:38:08;;;;;;;0.40;0.40;;;13.70;99.90;;;;;;4977046;28;20043;-83
2022/07/15 00:40:44;;;;;;;0.30;0.30;;;13.70;99.90;;;;;;4968125;28;20051;-83
2022/07/15 00:43:10;;;;;;;0.52;0.52;;;13.60;99.90;;;;;;4964237;28;20082;-83
2022/07/15 00:45:38;;;;;;;0.30;0.30;;;13.50;99.90;;;;;;4969958;28;20484;-84
2022/07/15 00:48:04;;;;;;;0.30;0.30;;;13.50;99.90;;;;;;4964923;28;20043;-82
2022/07/15 00:50:31;;;;;;;0.75;0.60;;;13.40;99.90;;;;;;4988905;28;20048;-83
2022/07/15 00:53:03;;;;;;;0.30;0.30;;;13.30;99.90;;;;;;4996441;28;20434;-83
2022/07/15 00:55:32;;;;;;;0.40;0.40;;;13.30;99.90;;;;;;4962982;28;20062;-82
2022/07/15 00:58:04;;;;;;;0.90;0.60;;;13.20;99.90;;;;;;4960899;28;20043;-83
2022/07/15 01:00:31;;;;;;;0.40;0.40;;;13.20;99.90;;;;;;4982586;28;20046;-84
2022/07/15 01:02:59;;;;;;;0.30;0.30;;;13.10;99.90;;;;;;4985256;28;20436;-83
2022/07/15 01:05:26;;;;;;;0.38;0.38;;;13.10;99.90;;;;;;5001630;28;20118;-82
2022/07/15 01:07:52;;;;;;;0.43;0.43;;;13.10;99.90;;;;;;4962522;28;20047;-83
2022/07/15 01:10:22;;;;;;;0.30;0.30;;;13.00;99.90;;;;;;4937756;28;20104;-82
2022/07/15 01:12:49;;;;;;;0.45;0.45;;;13.00;99.90;;;;;;4963062;28;20102;-83
2022/07/15 01:15:15;;;;;;;0.47;0.40;;;13.10;99.90;;;;;;4959298;28;20173;-81
2022/07/15 01:17:43;;;;;;;;;;;13.10;99.90;;;;;;4947454;28;20034;-81
2022/07/15 01:20:12;;;;;;;0.40;0.40;;;13.20;99.90;;;;;;4930207;28;20013;-81
2022/07/15 01:22:38;;;;;;;0.30;0.30;;;13.20;99.90;;;;;;4949231;28;20057;-81
2022/07/15 01:25:04;;;;;;;0.30;0.30;;;13.20;99.90;;;;;;4941789;28;20047;-84
2022/07/15 01:27:30;;;;;;;;;;;13.30;99.90;;;;;;4973649;28;20044;-83
2022/07/15 01:29:55;;;;;;;0.40;0.40;;;13.30;99.90;;;;;;4967705;28;20003;-82
2022/07/15 01:32:21;;;;;;;0.30;0.30;;;13.30;99.90;;;;;;4956869;28;20045;-83
2022/07/15 01:34:50;;;;;;;0.40;0.40;;;13.20;99.90;;;;;;4955341;28;20031;-83
2022/07/15 01:37:16;;;;;;;0.32;0.32;;;13.20;99.90;;;;;;4968709;28;20098;-82
2022/07/15 01:39:42;;;;;;;;;;;13.10;99.90;;;;;;4975767;28;20062;-83
2022/07/15 01:42:15;;;;;;;0.30;0.30;;;13.10;99.90;;;;;;4976040;28;19922;-82
2022/07/15 01:44:41;;;;;;;0.40;0.40;;;13.00;99.90;;;;;;4975203;28;20050;-83
2022/07/15 01:47:06;;;;;;;0.30;0.30;;;12.90;99.90;;;;;;4963578;28;20385;-83
2022/07/15 01:49:32;;;;;;;0.40;0.40;;;12.90;99.90;;;;;;4987837;28;20104;-83
2022/07/15 01:51:59;;;;;;;;;;;12.90;99.90;;;;;;4969548;28;20054;-83
2022/07/15 01:54:27;;;;;;;0.30;0.30;;;12.90;99.90;;;;;;4958081;28;20004;-86
2022/07/15 01:56:58;;;;;;;0.30;0.30;;;12.90;99.90;;;;;;4963657;28;20172;-83
2022/07/15 01:59:25;;;;;;;0.40;0.40;;;12.90;99.90;;;;;;4963700;28;20122;-84
2022/07/15 02:01:51;;;;;;;;;;;12.90;99.90;;;;;;4971224;28;20043;-82
2022/07/15 02:04:24;;;;;;;0.30;0.30;;;12.80;99.90;;;;;;4966145;28;19917;-84
2022/07/15 02:06:50;;;;;;;0.30;0.30;;;12.80;99.90;;;;;;4950000;28;20082;-83
2022/07/15 02:09:16;;;;;;;;;;;12.70;99.90;;;;;;4960408;28;20129;-83
2022/07/15 02:11:42;;;;;;;0.40;0.40;;;12.70;99.90;;;;;;4950251;28;20001;-82
2022/07/15 02:14:07;;;;;;;0.73;0.73;;;12.60;99.90;;;;;;4970311;28;20043;-85
2022/07/15 02:16:33;;;;;;;0.32;0.32;;;12.50;99.90;;;;;;4956134;28;20058;-84
2022/07/15 02:19:00;;;;;;;0.30;0.30;;;12.50;99.90;;;;;;4978489;28;20049;-81
2022/07/15 02:21:28;;;;;;;;;;;12.50;99.90;;;;;;4980099;28;20109;-84
2022/07/15 02:23:57;;;;;;;0.40;0.40;;;12.40;99.90;;;;;;4954514;28;19975;-82
2022/07/15 02:26:23;;;;;;;0.30;0.30;;;12.30;99.90;;;;;;4969711;28;20072;-83
2022/07/15 02:28:49;;;;;;;0.30;0.30;;;12.30;99.90;;;;;;4974155;28;20110;-84
2022/07/15 02:31:15;;;;;;;0.30;0.30;;;12.30;99.90;;;;;;4961110;28;20134;-84
2022/07/15 02:33:43;;;;;;;0.40;0.40;;;12.20;99.90;;;;;;4958953;28;20122;-82
2022/07/15 02:36:10;;;;;;;3.00;0.95;;;12.20;99.90;;;;;;4965860;28;20043;-82
2022/07/15 02:38:36;;;;;;;0.40;0.40;;;12.10;99.90;;;;;;4971909;28;20047;-82
2022/07/15 02:41:02;;;;;;;0.30;0.30;;;12.00;99.90;;;;;;4972761;28;20066;-84
2022/07/15 02:43:28;;;;;;;;;;;12.00;99.90;;;;;;4992997;28;20072;-82
2022/07/15 02:45:55;;;;;;;0.40;0.40;;;12.00;99.90;;;;;;4993895;28;19918;-85
2022/07/15 02:48:21;;;;;;;0.40;0.40;;;11.90;99.90;;;;;;4970915;28;20373;-82
2022/07/15 02:50:48;;;;;;;0.40;0.40;;;11.90;99.90;;;;;;4961188;28;20047;-83
2022/07/15 02:53:14;;;;;;;0.30;0.30;;;11.90;99.90;;;;;;4982122;28;20039;-83
2022/07/15 02:55:40;;;;;;;0.40;0.40;;;11.90;99.90;;;;;;4972265;28;20042;-83
2022/07/15 02:58:06;;;;;;;0.32;0.32;;;11.90;99.90;;;;;;4964616;28;20059;-83
2022/07/15 03:00:33;;;;;;;0.40;0.40;;;11.90;99.90;;;;;;4945386;28;20054;-83
2022/07/15 03:02:58;;;;;;;0.30;0.30;;;11.90;99.90;;;;;;4948685;28;20092;-83
2022/07/15 03:05:25;;;;;;;0.32;0.32;;;12.00;99.90;;;;;;4949680;28;20047;-83
2022/07/15 03:07:51;;;;;;;0.43;0.43;;;11.90;99.90;;;;;;4947881;28;20120;-84
2022/07/15 03:10:17;;;;;;;0.40;0.40;;;12.00;99.90;;;;;;4946798;28;20064;-83
2022/07/15 03:12:44;;;;;;;0.30;0.30;;;12.00;99.90;;;;;;4962906;28;20112;-82
2022/07/15 03:15:11;;;;;;;0.45;0.45;;;12.00;99.90;;;;;;4971601;28;20070;-84
2022/07/15 03:17:39;;;;;;;0.30;0.30;;;11.80;99.90;;;;;;4969725;28;20043;-82
2022/07/15 03:20:06;;;;;;;0.50;0.50;;;11.90;99.90;;;;;;4957806;28;20043;-82
2022/07/15 03:22:32;;;;;;;0.50;0.50;;;11.80;99.90;;;;;;4956765;28;20078;-83
2022/07/15 03:25:05;;;;;;;0.50;0.50;;;11.90;99.90;;;;;;4969144;28;20059;-83
2022/07/15 03:27:30;;;;;;;0.38;0.38;;;11.90;99.90;;;;;;4944093;28;20050;-83
2022/07/15 03:29:56;;;;;;;0.50;0.50;;;12.00;99.90;;;;;;4964349;28;20073;-82
2022/07/15 03:32:22;;;;;;;0.35;0.35;;;12.00;99.90;;;;;;4962806;28;20038;-84
2022/07/15 03:34:48;;;;;;;1.35;1.27;;;12.10;99.90;;;;;;4940523;28;20047;-83
2022/07/15 03:37:14;;;;;;;0.30;0.30;;;12.20;99.90;;;;;;4945272;28;20086;-83
2022/07/15 03:39:40;;;;;;;0.45;0.45;;;12.30;99.90;;;;;;4965059;28;20080;-82
2022/07/15 03:42:09;;;;;;;0.40;0.40;;;12.40;99.90;;;;;;4972480;28;20446;-83
2022/07/15 03:44:35;;;;;;;0.45;0.45;;;12.50;99.90;;;;;;4947889;28;20450;-83
2022/07/15 03:47:00;;;;;;;0.40;0.40;;;12.60;99.90;;;;;;4965952;28;20077;-83
2022/07/15 03:49:32;;;;;;;0.40;0.40;;;12.70;99.90;;;;;;4950287;28;20086;-83
2022/07/15 03:51:58;;;;;;;0.40;0.40;;;12.70;99.90;;;;;;4992487;28;20107;-83
2022/07/15 03:54:25;;;;;;;0.35;0.35;;;12.80;99.90;;;;;;4949572;28;20042;-82
2022/07/15 03:56:51;;;;;;;0.40;0.40;;;12.80;99.90;;;;;;4943543;28;20043;-82
2022/07/15 03:59:20;;;;;;;0.30;0.30;;;12.80;99.90;;;;;;4959866;28;20097;-83
2022/07/15 04:01:48;;;;;;;0.40;0.40;;;12.90;99.90;;;;;;4966558;28;20498;-83
2022/07/15 04:04:14;;;;;;;0.50;0.50;;;12.90;99.90;;;;;;4961425;28;20122;-83
2022/07/15 04:06:40;;;;;;;0.30;0.30;;;13.00;99.90;;;;;;4971236;28;20035;-82
2022/07/15 04:09:07;;;;;;;0.30;0.30;;;13.00;99.90;;;;;;4976433;28;20078;-83
2022/07/15 04:11:33;;;;;;;0.35;0.35;;;13.00;99.90;;;;;;4936582;28;20409;-82
2022/07/15 04:13:59;;;;;;;0.30;0.30;;;13.10;99.90;;;;;;4939916;28;20042;-83
2022/07/15 04:16:28;;;;;;;0.30;0.30;;;13.10;99.90;;;;;;4933723;28;20429;-83
2022/07/15 04:18:54;;;;;;;0.45;0.45;;;13.20;99.90;;;;;;4919965;29;20382;-83
2022/07/15 04:21:20;;;;;;;0.98;0.98;;;13.10;99.90;;;;;;4934016;29;20047;-83
2022/07/15 04:23:47;;;;;;;0.40;0.40;;;13.20;99.90;;;;;;4937395;29;20047;-83
2022/07/15 04:26:13;;;;;;;0.30;0.30;;;13.10;99.90;;;;;;4946172;28;20097;-82
2022/07/15 04:28:39;;;;;;;0.30;0.30;;;13.10;99.90;;;;;;4935944;28;20052;-82
2022/07/15 04:31:07;;;;;;;0.40;0.40;;;13.00;99.90;;;;;;4942466;29;20440;-82
2022/07/15 04:33:33;;;;;;;0.30;0.30;;;13.00;99.90;;;;;;4940074;29;20043;-82
2022/07/15 04:36:00;;;;;;;0.40;0.40;;;13.00;99.90;;;;;;4923634;29;20046;-82
2022/07/15 04:38:25;;;;;;;0.30;0.30;;;13.10;99.90;;;;;;4940165;28;20389;-82
2022/07/15 04:40:53;;;;;;;0.38;0.38;;;13.10;99.90;;;;;;4921740;28;20051;-80
2022/07/15 04:43:19;;;;;;;0.30;0.30;;;13.20;99.90;;;;;;4951404;28;20047;-82
2022/07/15 04:45:46;;;;;;;0.40;0.40;;;13.30;99.90;;;;;;4947217;29;20047;-84
2022/07/15 04:50:56;;;;;;;0.38;0.38;;;13.50;99.90;;;;;;4934319;29;20426;-83
2022/07/15 04:53:22;;;;;;;0.30;0.30;;;13.50;99.90;;;;;;4940308;28;20485;-82
2022/07/15 04:55:51;;;;;;;0.30;0.30;;;13.60;99.90;;;;;;4935858;29;20420;-81
2022/07/15 04:58:17;;;;;;;0.40;0.40;;;13.60;99.90;;;;;;4923182;29;20131;-82
2022/07/15 05:00:44;;;;;;;0.40;0.40;;;13.70;99.90;;;;;;4940311;28;20044;-83
2022/07/15 05:03:10;;;;;;;1.88;0.95;;;13.70;99.90;;;;;;4931022;29;20048;-82
2022/07/15 05:05:37;;;;;;;0.32;0.32;;;13.70;99.90;;;;;;4949809;28;20077;-84
2022/07/15 05:08:06;;;;;;;0.35;0.35;;;13.70;99.90;;;;;;4946899;29;20541;-83
2022/07/15 05:10:32;;;;;;;0.40;0.40;;;13.80;99.90;;;;;;4961901;28;20133;-83
2022/07/15 05:12:58;;;;;;;0.28;0.28;;;13.80;99.90;;;;;;4967558;28;20145;-81
2022/07/15 05:15:24;;;;;;;0.43;0.43;;;13.90;99.90;;;;;;4948187;28;20043;-82
2022/07/15 05:17:50;;;;;;;0.38;0.38;;;14.00;99.90;;;;;;4937240;28;20427;-82
2022/07/15 05:20:16;;;;;;;0.30;0.30;;;14.00;99.90;;;;;;4961007;28;20055;-82
2022/07/15 05:22:42;;;;;;;0.30;0.30;;;14.10;99.90;;;;;;4991088;28;20144;-82
2022/07/15 05:25:08;;;;;;;;;;;14.10;99.90;;;;;;4953774;28;20042;-81
2022/07/15 05:27:39;;;;;;;0.47;0.47;;;14.20;99.90;;;;;;4963364;28;19924;-82
2022/07/15 05:30:06;;;;;;;;;;;14.20;99.90;;;;;;4965257;28;20043;-81
2022/07/15 05:32:38;;;;;;;0.30;0.30;;;14.30;99.90;;;;;;4962128;28;20318;-82
2022/07/15 05:35:05;;;;;;;0.40;0.40;;;14.30;99.90;;;;;;4929172;28;20046;-82
2022/07/15 05:37:30;;;;;;;0.30;0.30;;;14.40;99.90;;;;;;4970260;28;20071;-82
2022/07/15 05:39:57;;;;;;;0.30;0.30;;;14.40;99.90;;;;;;4950453;28;20098;-83
2022/07/15 05:42:24;;;;;;;0.30;0.30;;;14.50;99.90;;;;;;4962063;28;20062;-82
2022/07/15 05:44:50;;;;;;;0.35;0.35;;;14.60;99.90;;;;;;4964931;28;20061;-82
2022/07/15 05:47:16;;;;;;;0.25;0.25;;;14.60;99.90;;;;;;4980614;28;20055;-81
2022/07/15 05:49:41;;;;;;;;;;;14.70;99.90;;;;;;4967041;28;20050;-82
2022/07/15 05:52:08;;;;;;;0.50;0.50;;;14.70;99.90;;;;;;4984313;28;20074;-82
2022/07/15 05:54:36;;;;;;;0.30;0.30;;;14.70;99.90;;;;;;4958977;28;20121;-81
2022/07/15 05:57:03;;;;;;;0.30;0.30;;;14.80;99.90;;;;;;4943818;28;20241;-82
2022/07/15 05:59:29;;;;;;;0.20;0.20;;;14.80;99.90;;;;;;4962359;28;20102;-81
2022/07/15 06:01:55;;;;;;;0.25;0.25;;;14.80;99.90;;;;;;4948312;28;20097;-81
2022/07/15 06:04:21;;;;;;;0.25;0.25;;;14.90;99.90;;;;;;4958954;28;20043;-83
2022/07/15 06:06:47;;;;;;;0.80;0.80;;;15.00;99.90;;;;;;4968861;28;20051;-81
2022/07/15 06:09:12;;;;;;;;;;;15.00;99.90;;;;;;4966599;28;20516;-81
2022/07/15 06:11:40;;;;;;;0.33;0.33;;;14.90;99.90;;;;;;4991981;28;19922;-85
2022/07/15 06:14:06;;;;;;;0.28;0.28;;;14.80;99.90;;;;;;4963444;28;20198;-82
2022/07/15 06:16:31;;;;;;;0.30;0.30;;;14.80;99.90;;;;;;4967383;28;20046;-85
2022/07/15 06:18:57;;;;;;;;;;;14.60;99.90;;;;;;4964143;28;20039;-84
2022/07/15 06:21:24;;;;;;;0.35;0.35;;;14.50;99.90;;;;;;4943032;28;19926;-81
2022/07/15 06:23:53;;;;;;;0.85;0.85;;;14.20;99.90;;;;;;4975110;28;20061;-80
2022/07/15 06:26:18;;;;;;;0.30;0.30;;;14.10;99.90;;;;;;4961223;28;20050;-82
2022/07/15 06:28:44;;;;;;;;;;;14.10;99.90;;;;;;4961976;28;20046;-83
2022/07/15 06:31:12;;;;;;;0.30;0.30;;;14.10;99.90;;;;;;4960353;28;19930;-85
2022/07/15 06:33:38;;;;;;;0.32;0.32;;;14.30;99.90;;;;;;4943820;28;20050;-83
2022/07/15 06:36:04;;;;;;;0.30;0.30;;;14.40;99.90;;;;;;5039025;28;20044;-84
2022/07/15 06:38:33;;;;;;;0.40;0.40;;;14.50;99.90;;;;;;4957552;28;20039;-83
2022/07/15 06:41:00;;;;;;;1.17;0.95;;;14.50;99.90;;;;;;4942051;28;20485;-81
2022/07/15 06:43:25;;;;;;;0.40;0.40;;;14.50;99.90;;;;;;5027801;28;20035;-82
2022/07/15 06:45:51;;;;;;;0.20;0.20;;;14.50;99.90;;;;;;4938487;28;20061;-82
2022/07/15 06:48:17;;;;;;;0.70;0.45;;;14.50;99.90;;;;;;4936146;28;20094;-80
2022/07/15 06:50:43;;;;;;;0.20;0.20;;;14.40;99.90;;;;;;4939689;28;20043;-79
2022/07/15 06:53:09;;;;;;;0.40;0.40;;;14.40;99.90;;;;;;5045634;28;20148;-81
2022/07/15 06:55:35;;;;;;;0.30;0.30;;;14.40;99.90;;;;;;4955532;28;20117;-81
2022/07/15 06:58:00;;;;;;;0.30;0.30;;;14.50;99.90;;;;;;4966343;28;20093;-81
2022/07/15 07:00:26;;;;;;;0.38;0.38;;;14.50;99.90;;;;;;4960034;28;20488;-80
2022/07/15 07:02:52;;;;;;;0.30;0.30;;;14.50;99.90;;;;;;4963484;28;20086;-83
2022/07/15 07:05:18;;;;;;;0.25;0.25;;;14.60;99.90;;;;;;4958422;28;20071;-80
2022/07/15 07:07:43;;;;;;;0.20;0.20;;;14.70;99.90;;;;;;4969347;28;20039;-80
2022/07/15 07:10:10;;;;;;;0.40;0.40;;;14.80;99.90;;;;;;4963109;28;20116;-81
2022/07/15 07:12:36;;;;;;;0.30;0.30;;;15.00;99.90;;;;;;4964097;28;20055;-82
2022/07/15 07:15:07;;;;;;;0.43;0.43;;;15.20;99.90;;;;;;4943403;28;20043;-83
2022/07/15 07:17:33;;;;;;;0.43;0.43;;;15.20;99.90;;;;;;4973826;28;20055;-80
2022/07/15 07:19:58;;;;;;;;;;;15.40;99.90;;;;;;4955171;28;20047;-80
2022/07/15 07:22:24;;;;;;;0.38;0.38;;;15.40;99.90;;;;;;4964060;28;19944;-80
2022/07/15 07:24:51;;;;;;;;;;;15.50;99.90;;;;;;4963561;28;20047;-81
2022/07/15 07:27:17;;;;;;;0.28;0.28;;;;;;;;;;4958220;28;19929;-81
2022/07/15 07:29:42;;;;;;;0.25;0.25;;;15.80;99.90;;;;;;4964574;28;20511;-81
2022/07/15 07:32:08;;;;;;;0.30;0.30;;;;;;;;;;4983834;28;20042;-80
2022/07/15 07:34:38;;;;;;;;;;;;;;;;;;4967380;28;20062;-81
2022/07/15 07:37:06;;;;;;;0.30;0.30;;;16.30;99.90;;;;;;4965164;28;19918;-80
2022/07/15 07:39:32;;;;;;;0.30;0.30;;;16.50;99.90;;;;;;4974709;28;20138;-81
2022/07/15 07:41:57;;;;;;;;;;;16.40;99.90;;;;;;4975702;28;20387;-80
2022/07/15 07:44:23;;;;;;;0.30;0.30;;;16.40;99.90;;;;;;4973044;28;19922;-79
2022/07/15 07:46:49;;;;;;;0.30;0.30;;;16.40;99.90;;;;;;4937954;28;20047;-82
2022/07/15 07:49:16;;;;;;;0.30;0.30;;;16.30;99.90;;;;;;4972229;28;20047;-81
2022/07/15 07:51:42;;;;;;;1.08;0.98;;;16.30;99.90;;;;;;4976805;28;20084;-81
2022/07/15 07:54:12;;;;;;;0.35;0.35;;;16.40;99.90;;;;;;4984456;28;20051;-81
2022/07/15 07:56:37;;;;;;;0.20;0.20;;;16.50;99.90;;;;;;4968385;28;20061;-81
2022/07/15 07:59:10;;;;;;;0.30;0.30;;;16.70;99.90;;;;;;4946103;28;20085;-80
2022/07/15 08:01:36;;;;;;;1.13;1.02;;;16.90;99.90;;;;;;4965184;28;20055;-82
2022/07/15 08:04:03;;;;;;;0.20;0.20;;;17.20;99.90;;;;;;4951990;28;20111;-80
2022/07/15 08:06:29;;;;;;;0.20;0.20;;;17.30;99.90;;;;;;4957921;28;20062;-79
2022/07/15 08:08:55;;;;;;;0.20;0.20;;;17.30;99.90;;;;;;4959550;28;20485;-85
2022/07/15 08:11:21;;;;;;;;;;;17.40;99.90;;;;;;4946990;28;20082;-79
2022/07/15 08:13:47;;;;;;;0.20;0.20;;;17.40;99.90;;;;;;4952039;28;19925;-80
2022/07/15 08:16:16;;;;;;;0.20;0.20;;;17.50;99.90;;;;;;4955019;28;20040;-79
2022/07/15 08:18:43;;;;;;;;;;;17.60;99.90;;;;;;4953729;28;20484;-80
2022/07/15 08:21:08;;;;;;;0.30;0.30;;;17.70;99.90;;;;;;4955780;28;19918;-80
2022/07/15 08:23:34;;;;;;;;;;;17.70;99.90;;;;;;4959700;28;20054;-81
2022/07/15 08:26:07;;;;;;;0.30;0.30;;;17.50;99.90;;;;;;4960443;28;20383;-81
2022/07/15 08:28:33;;;;;;;0.20;0.20;;;17.20;99.90;;;;;;4959140;28;20054;-81
2022/07/15 08:31:00;;;;;;;;;;;17.00;99.90;;;;;;4962709;28;20046;-80
2022/07/15 08:33:27;;;;;;;0.20;0.20;;;17.00;99.90;;;;;;4969137;28;19985;-80
2022/07/15 08:35:56;;;;;;;0.30;0.30;;;17.00;99.90;;;;;;4952025;28;20036;-80
2022/07/15 08:38:22;;;;;;;;;;;17.10;99.90;;;;;;4957479;28;20054;-81
2022/07/15 08:40:48;;;;;;;0.30;0.30;;;17.30;99.90;;;;;;4950550;28;19918;-80
2022/07/15 08:43:14;;;;;;;0.40;0.40;;;17.40;99.90;;;;;;4951837;28;20396;-80
2022/07/15 08:45:42;;;;;;;;;;;17.50;99.90;;;;;;4953907;28;20065;-78
2022/07/15 08:48:10;;;;;;;0.30;0.30;;;17.50;99.90;;;;;;4966332;28;19918;-80
2022/07/15 08:50:36;;;;;;;0.40;0.40;;;17.60;99.90;;;;;;4953671;28;20055;-81
2022/07/15 08:53:02;;;;;;;;;;;17.60;99.90;;;;;;4955967;28;20040;-82
2022/07/15 08:55:28;;;;;;;0.40;0.40;;;17.60;99.90;;;;;;4935699;28;19925;-80
2022/07/15 08:57:54;;;;;;;0.30;0.30;;;17.40;99.90;;;;;;4957537;28;20053;-81
2022/07/15 09:00:20;;;;;;;;;;;17.40;99.90;;;;;;4943187;28;20051;-81
2022/07/15 09:02:49;;;;;;;1.20;1.10;;;17.40;99.90;;;;;;4958109;28;19941;-82
2022/07/15 09:05:22;;;;;;;0.20;0.20;;;17.40;99.90;;;;;;4959512;28;20122;-80
2022/07/15 09:07:54;;;;;;;0.40;0.40;;;17.50;99.90;;;;;;4945916;28;20051;-80
2022/07/15 09:10:25;;;;;;;0.20;0.20;;;17.70;99.90;;;;;;4946796;28;20061;-82
2022/07/15 09:12:53;;;;;;;0.50;0.50;;;18.10;99.90;;;;;;4951675;28;20095;-80
2022/07/15 09:15:33;;;;;;;0.20;0.20;;;18.40;99.90;;;;;;4965432;28;20112;-81
2022/07/15 09:18:08;;;;;;;0.20;0.20;;;18.40;99.90;;;;;;4951266;28;20049;-81
2022/07/15 09:20:35;;;;;;;0.20;0.20;;;18.20;99.90;;;;;;4951017;28;20043;-79
2022/07/15 09:23:02;;;;;;;0.30;0.30;;;18.00;99.90;;;;;;4951153;28;20449;-83
2022/07/15 09:25:28;;;;;;;0.20;0.20;;;17.90;99.90;;;;;;4950247;28;20374;-81
2022/07/15 09:27:54;;;;;;;0.30;0.30;;;17.90;99.90;;;;;;4953885;28;20043;-81
2022/07/15 09:33:35;;;;;;;0.30;0.30;;;18.10;99.90;;;;;;4965671;28;20053;-81
2022/07/15 09:36:09;;;;;;;0.30;0.30;;;18.20;99.90;;;;;;4962454;28;20110;-82
2022/07/15 09:38:48;;;;;;;0.30;0.30;;;18.10;99.90;;;;;;4963199;28;20066;-81
2022/07/15 09:41:33;;;;;;;0.40;0.40;;;18.10;99.90;;;;;;4962787;28;20075;-81
2022/07/15 09:44:04;;;;;;;0.30;0.30;;;18.10;99.90;;;;;;4953972;28;20051;-81
2022/07/15 09:46:51;;;;;;;0.20;0.20;;;18.20;99.90;;;;;;4954220;28;20122;-83
2022/07/15 09:49:22;;;;;;;;;;;18.30;99.90;;;;;;4967259;28;20047;-81
2022/07/15 09:51:54;;;;;;;0.20;0.20;;;18.50;99.90;;;;;;4954044;28;19918;-83
2022/07/15 09:54:21;;;;;;;0.35;0.35;;;18.70;99.90;;;;;;4950540;28;20048;-82
2022/07/15 09:56:48;;;;;;;0.22;0.22;;;18.80;99.90;;;;;;4952826;28;20384;-85
2022/07/15 09:59:15;;;;;;;0.30;0.30;;;18.80;99.90;;;;;;4951204;28;20057;-80
2022/07/15 10:01:42;;;;;;;0.30;0.30;;;18.90;99.90;;;;;;4954572;28;20123;-82
2022/07/15 10:04:10;;;;;;;0.40;0.40;;;18.90;99.90;;;;;;4934689;28;20079;-82
2022/07/15 10:06:38;;;;;;;0.20;0.20;;;19.10;99.90;;;;;;4961076;28;20116;-82
2022/07/15 10:09:06;;;;;;;0.32;0.32;;;19.20;99.90;;;;;;4940060;28;20073;-79
2022/07/15 10:11:35;;;;;;;0.38;0.38;;;19.10;99.90;;;;;;4949238;28;20051;-82
2022/07/15 10:14:38;;;;;;;0.50;0.50;;;19.00;99.90;;;;;;4937136;28;20081;-82
2022/07/15 10:17:17;;;;;;;0.30;0.30;;;19.00;99.90;;;;;;4934826;28;20043;-80
2022/07/15 10:20:09;;;;;;;0.30;0.30;;;19.00;99.90;;;;;;4934640;28;20485;-82
2022/07/15 10:23:12;;;;;;;0.40;0.40;;;19.40;99.90;;;;;;4929696;28;20523;-81
2022/07/15 10:25:56;;;;;;;0.30;0.30;;;;;;;;;;4986393;28;20143;-79
2022/07/15 10:28:52;;;;;;;0.40;0.40;;;20.00;99.90;;;;;;4948732;28;20055;-83
2022/07/15 10:31:27;;;;;;;0.30;0.30;;;20.30;99.90;;;;;;4959141;28;20085;-81
2022/07/15 10:34:04;;;;;;;0.30;0.30;;;20.40;99.90;;;;;;4975587;28;20468;-85
2022/07/15 10:36:49;;;;;;;0.30;0.30;;;20.30;99.90;;;;;;4960565;28;20051;-85
2022/07/15 10:39:20;;;;;;;0.60;0.50;;;20.00;99.90;;;;;;4959456;28;20050;-82
2022/07/15 10:42:03;;;;;;;0.50;0.50;;;19.60;99.90;;;;;;4964308;28;20126;-81
2022/07/15 10:44:32;;;;;;;0.30;0.30;;;19.30;99.90;;;;;;4967501;28;20074;-84
2022/07/15 10:47:13;;;;;;;0.30;0.30;;;19.00;99.90;;;;;;4950372;28;20039;-83
2022/07/15 10:49:44;;;;;;;0.30;0.30;;;18.80;99.90;;;;;;4968915;28;20057;-84
2022/07/15 10:52:20;;;;;;;0.30;0.30;;;18.60;99.90;;;;;;4970891;28;20045;-84
2022/07/15 10:54:49;;;;;;;0.43;0.43;;;18.50;99.90;;;;;;4939595;28;20456;-82
2022/07/15 10:57:21;;;;;;;0.43;0.38;;;18.40;99.90;;;;;;4957254;28;20047;-81
2022/07/15 10:59:52;;;;;;;0.38;0.38;;;18.40;99.90;;;;;;4956496;28;20089;-82
2022/07/15 11:02:20;;;;;;;0.30;0.30;;;18.30;99.90;;;;;;4966880;28;20042;-82
2022/07/15 11:04:47;;;;;;;0.68;0.68;;;18.40;99.90;;;;;;4966443;28;20047;-83
2022/07/15 11:07:16;;;;;;;0.30;0.30;;;18.40;99.90;;;;;;4958873;28;20047;-83
2022/07/15 11:09:47;;;;;;;0.20;0.20;;;18.50;99.90;;;;;;4953134;28;20055;-84
2022/07/15 11:12:30;;;;;;;0.20;0.20;;;18.50;99.90;;;;;;4952594;28;20059;-81
2022/07/15 11:14:57;;;;;;;0.20;0.20;;;18.60;99.90;;;;;;4961165;28;20484;-84
2022/07/15 11:17:37;;;;;;;0.57;0.57;;;18.70;99.90;;;;;;4955363;28;20069;-82
2022/07/15 11:20:11;;;;;;;0.30;0.30;;;18.80;99.90;;;;;;4937644;28;20540;-82
2022/07/15 11:22:42;;;;;;;0.20;0.20;;;19.00;99.90;;;;;;4957040;28;20549;-84
2022/07/15 11:25:23;;;;;;;0.30;0.30;;;19.20;99.90;;;;;;4953560;28;20547;-82
2022/07/15 11:28:12;;;;;;;0.20;0.20;;;19.40;99.90;;;;;;4953887;28;20065;-82
2022/07/15 11:30:39;;;;;;;0.25;0.25;;;19.50;99.90;;;;;;4940545;28;20055;-84
2022/07/15 11:33:09;;;;;;;0.50;0.50;;;19.60;99.90;;;;;;4969964;28;20103;-82
2022/07/15 11:35:47;;;;;;;0.30;0.30;;;19.70;99.90;;;;;;4952880;28;20104;-83
2022/07/15 11:38:13;;;;;;;0.20;0.20;;;19.80;99.90;;;;;;4952522;28;20046;-82
2022/07/15 11:46:17;;;;;;;0.30;0.30;;;20.00;99.90;;;;;;4954173;28;20043;-81
2022/07/15 11:48:43;;;;;;;0.20;0.20;;;19.90;99.90;;;;;;4952511;28;20126;-85
2022/07/15 11:51:11;;;;;;;0.30;0.30;;;19.90;99.90;;;;;;4955768;28;20146;-83
2022/07/15 11:53:42;;;;;;;1.90;0.43;;;20.00;99.90;;;;;;4952441;28;20039;-82
2022/07/15 11:56:11;;;;;;;0.20;0.20;;;20.10;99.90;;;;;;4957449;28;20051;-82
2022/07/15 11:58:46;;;;;;;0.30;0.30;;;20.30;99.90;;;;;;4939641;28;20043;-83
2022/07/15 12:01:14;;;;;;;0.20;0.20;;;20.60;99.90;;;;;;4938750;28;20040;-80
2022/07/15 12:03:46;;;;;;;0.30;0.30;;;20.60;99.90;;;;;;4962308;28;20039;-82
2022/07/15 12:06:20;;;;;;;0.20;0.20;;;20.50;99.90;;;;;;4953781;28;20039;-84
2022/07/15 12:08:56;;;;;;;0.30;0.30;;;20.30;99.90;;;;;;4960545;28;20070;-80
2022/07/15 12:11:26;;;;;;;0.30;0.30;;;20.30;99.90;;;;;;4960302;28;20051;-82
2022/07/15 12:13:56;;;;;;;0.38;0.38;;;20.20;99.90;;;;;;4956039;28;20039;-83
2022/07/15 12:16:25;;;;;;;0.20;0.20;;;20.00;99.90;;;;;;4954201;28;20050;-83
2022/07/15 12:18:54;;;;;;;0.20;0.20;;;19.70;99.90;;;;;;4945357;28;20043;-83
2022/07/15 12:21:21;;;;;;;0.40;0.40;;;19.50;99.90;;;;;;4956898;28;20047;-84
2022/07/15 12:24:16;;;;;;;0.30;0.30;;;19.30;99.90;;;;;;4967773;28;20059;-83
2022/07/15 12:27:03;;;;;;;0.20;0.20;;;19.10;99.90;;;;;;4948564;28;20051;-82
2022/07/15 12:29:33;;;;;;;0.20;0.20;;;19.00;99.90;;;;;;4962254;28;20130;-83
2022/07/15 12:32:02;;;;;;;0.28;0.28;;;18.90;99.90;;;;;;4964269;28;20472;-83
2022/07/15 12:34:46;;;;;;;0.35;0.30;;;18.80;99.90;;;;;;4972234;28;20046;-82
2022/07/15 12:37:13;;;;;;;0.20;0.20;;;18.80;99.90;;;;;;4959040;28;20084;-81
2022/07/15 12:39:53;;;;;;;0.20;0.20;;;18.80;99.90;;;;;;4955906;28;20054;-82
2022/07/15 12:42:19;;;;;;;0.20;0.20;;;18.70;99.90;;;;;;4952105;28;20450;-84
2022/07/15 12:44:45;;;;;;;;;;;18.60;99.90;;;;;;4943548;28;20078;-82
2022/07/15 12:47:17;;;;;;;0.30;0.30;;;18.50;99.90;;;;;;4940697;28;19962;-83
2022/07/15 12:49:52;;;;;;;0.20;0.20;;;18.40;99.90;;;;;;4965469;28;20046;-83
2022/07/15 12:52:37;;;;;;;0.40;0.40;;;18.40;99.90;;;;;;4957177;28;20369;-82
2022/07/15 12:55:20;;;;;;;0.25;0.25;;;18.40;99.90;;;;;;4955823;28;20409;-84
2022/07/15 12:57:46;;;;;;;0.22;0.22;;;18.40;99.90;;;;;;4938521;28;20493;-83
2022/07/15 13:00:13;;;;;;;0.20;0.20;;;18.50;99.90;;;;;;4962830;28;20049;-83
2022/07/15 13:03:11;;;;;;;0.25;0.25;;;18.60;99.90;;;;;;4952750;28;20078;-83
2022/07/15 13:05:39;;;;;;;0.20;0.20;;;18.70;99.90;;;;;;4951690;28;20103;-85
2022/07/15 13:08:10;;;;;;;0.30;0.30;;;18.90;99.90;;;;;;4955365;28;20043;-84
2022/07/15 13:10:36;;;;;;;0.20;0.20;;;19.20;99.90;;;;;;4947293;28;20471;-83
2022/07/15 13:13:03;;;;;;;0.50;0.50;;;19.40;99.90;;;;;;4957672;28;20057;-81
2022/07/15 13:15:35;;;;;;;0.38;0.38;;;19.60;99.90;;;;;;4968599;28;20050;-82